GPC weather

Putnam County Airport
Greencastle, Indiana, United States

Public forecast

Using degrees Fahrenheit for public forecast. Weather courtesy of forecast.io.

Current aviation weather report (METAR) for Putnam County Airport

Retrieved 2019/10/23 19:35 UTC (0 seconds ago):

KGPC 231935Z AUTO 21010G16KT 181V251 7SM CLR 17/01 A3003 RMK AO2

Closest aviation forecast (TAF) to Putnam County Airport

Closest forecast is Indianapolis International Airport, 24.6 nm (45.5 km) ENE. Retrieved 2019/10/23 18:42 UTC (51 minutes ago):

TAF KIND 231739Z 2318/2424 20014G24KT P6SM FEW080 SCT250 FM240200 19012G23KT P6SM FEW080 SCT250 WS020/21040KT FM241000 23008KT P6SM SCT060 BKN120